sensor_id;sensor_type;location;lat;lon;timestamp;P1;durP1;ratioP1;P2;durP2;ratioP2
44728;SDS011;30457;53.590;9.922;2023-10-08T00:03:35;6.07;;;2.80;;
44728;SDS011;30457;53.590;9.922;2023-10-08T00:08:01;5.32;;;2.40;;
44728;SDS011;30457;53.590;9.922;2023-10-08T00:12:27;7.55;;;2.60;;
44728;SDS011;30457;53.590;9.922;2023-10-08T00:16:54;7.43;;;2.88;;
44728;SDS011;30457;53.590;9.922;2023-10-08T00:21:19;4.72;;;1.95;;
44728;SDS011;30457;53.590;9.922;2023-10-08T00:25:53;8.50;;;3.05;;
44728;SDS011;30457;53.590;9.922;2023-10-08T00:30:19;4.88;;;1.90;;
44728;SDS011;30457;53.590;9.922;2023-10-08T00:34:45;5.72;;;1.80;;
44728;SDS011;30457;53.590;9.922;2023-10-08T00:39:11;3.47;;;1.20;;
44728;SDS011;30457;53.590;9.922;2023-10-08T00:43:47;7.60;;;2.30;;
44728;SDS011;30457;53.590;9.922;2023-10-08T00:48:13;3.33;;;1.40;;
44728;SDS011;30457;53.590;9.922;2023-10-08T00:52:42;4.45;;;1.50;;
44728;SDS011;30457;53.590;9.922;2023-10-08T00:57:22;4.70;;;1.77;;
44728;SDS011;30457;53.590;9.922;2023-10-08T01:01:53;5.90;;;1.35;;
44728;SDS011;30457;53.590;9.922;2023-10-08T01:06:24;3.40;;;1.20;;
44728;SDS011;30457;53.590;9.922;2023-10-08T01:10:54;3.78;;;1.30;;
44728;SDS011;30457;53.590;9.922;2023-10-08T01:15:25;4.00;;;1.67;;
44728;SDS011;30457;53.590;9.922;2023-10-08T01:19:54;5.13;;;1.40;;
44728;SDS011;30457;53.590;9.922;2023-10-08T01:24:33;6.35;;;1.40;;
44728;SDS011;30457;53.590;9.922;2023-10-08T01:29:00;4.97;;;1.40;;
44728;SDS011;30457;53.590;9.922;2023-10-08T01:33:32;18.33;;;3.10;;
44728;SDS011;30457;53.590;9.922;2023-10-08T01:38:03;4.03;;;1.60;;
44728;SDS011;30457;53.590;9.922;2023-10-08T01:42:28;8.48;;;2.05;;
44728;SDS011;30457;53.590;9.922;2023-10-08T01:46:57;3.80;;;2.38;;
44728;SDS011;30457;53.590;9.922;2023-10-08T01:51:23;8.60;;;1.50;;
44728;SDS011;30457;53.590;9.922;2023-10-08T01:56:02;3.72;;;1.67;;
44728;SDS011;30457;53.590;9.922;2023-10-08T02:00:29;2.05;;;1.10;;
44728;SDS011;30457;53.590;9.922;2023-10-08T02:04:54;4.35;;;1.10;;
44728;SDS011;30457;53.590;9.922;2023-10-08T02:09:20;2.70;;;1.40;;
44728;SDS011;30457;53.590;9.922;2023-10-08T02:13:51;5.07;;;2.42;;
44728;SDS011;30457;53.590;9.922;2023-10-08T02:18:20;5.43;;;1.65;;
44728;SDS011;30457;53.590;9.922;2023-10-08T02:22:48;13.93;;;1.20;;
44728;SDS011;30457;53.590;9.922;2023-10-08T02:27:17;3.38;;;1.00;;
44728;SDS011;30457;53.590;9.922;2023-10-08T02:31:43;3.25;;;1.02;;
44728;SDS011;30457;53.590;9.922;2023-10-08T02:36:08;2.47;;;1.00;;
44728;SDS011;30457;53.590;9.922;2023-10-08T02:40:36;2.28;;;0.82;;
44728;SDS011;30457;53.590;9.922;2023-10-08T02:45:02;4.25;;;0.95;;
44728;SDS011;30457;53.590;9.922;2023-10-08T02:49:28;1.35;;;0.85;;
44728;SDS011;30457;53.590;9.922;2023-10-08T02:53:56;3.80;;;0.90;;
44728;SDS011;30457;53.590;9.922;2023-10-08T02:58:22;2.63;;;0.80;;
44728;SDS011;30457;53.590;9.922;2023-10-08T03:02:50;3.40;;;0.75;;
44728;SDS011;30457;53.590;9.922;2023-10-08T03:07:17;5.05;;;1.05;;
44728;SDS011;30457;53.590;9.922;2023-10-08T03:11:48;5.75;;;1.13;;
44728;SDS011;30457;53.590;9.922;2023-10-08T03:16:15;2.47;;;0.60;;
44728;SDS011;30457;53.590;9.922;2023-10-08T03:20:41;4.38;;;0.85;;
44728;SDS011;30457;53.590;9.922;2023-10-08T03:25:07;1.13;;;0.50;;
44728;SDS011;30457;53.590;9.922;2023-10-08T03:29:41;2.55;;;1.33;;
44728;SDS011;30457;53.590;9.922;2023-10-08T03:34:16;6.20;;;1.00;;
44728;SDS011;30457;53.590;9.922;2023-10-08T03:38:44;5.15;;;1.10;;
44728;SDS011;30457;53.590;9.922;2023-10-08T03:43:10;4.60;;;1.00;;
44728;SDS011;30457;53.590;9.922;2023-10-08T03:47:44;3.30;;;1.55;;
44728;SDS011;30457;53.590;9.922;2023-10-08T03:52:11;4.75;;;0.82;;
44728;SDS011;30457;53.590;9.922;2023-10-08T03:56:40;2.00;;;0.85;;
44728;SDS011;30457;53.590;9.922;2023-10-08T04:01:10;4.43;;;0.90;;
44728;SDS011;30457;53.590;9.922;2023-10-08T04:05:43;2.95;;;0.50;;
44728;SDS011;30457;53.590;9.922;2023-10-08T04:10:17;7.57;;;0.88;;
44728;SDS011;30457;53.590;9.922;2023-10-08T04:14:59;1.77;;;1.10;;
44728;SDS011;30457;53.590;9.922;2023-10-08T04:19:32;2.55;;;0.90;;
44728;SDS011;30457;53.590;9.922;2023-10-08T04:23:58;2.50;;;1.13;;
44728;SDS011;30457;53.590;9.922;2023-10-08T04:28:23;2.55;;;0.77;;
44728;SDS011;30457;53.590;9.922;2023-10-08T04:32:53;1.15;;;0.47;;
44728;SDS011;30457;53.590;9.922;2023-10-08T04:37:19;3.63;;;1.55;;
44728;SDS011;30457;53.590;9.922;2023-10-08T04:41:45;5.75;;;1.10;;
44728;SDS011;30457;53.590;9.922;2023-10-08T04:46:13;1.50;;;0.73;;
44728;SDS011;30457;53.590;9.922;2023-10-08T04:50:50;1.55;;;0.88;;
44728;SDS011;30457;53.590;9.922;2023-10-08T04:55:23;3.10;;;1.08;;
44728;SDS011;30457;53.590;9.922;2023-10-08T04:59:53;1.10;;;0.80;;
44728;SDS011;30457;53.590;9.922;2023-10-08T05:04:22;3.22;;;1.00;;
44728;SDS011;30457;53.590;9.922;2023-10-08T05:09:12;3.35;;;0.60;;
44728;SDS011;30457;53.590;9.922;2023-10-08T05:13:44;2.53;;;0.93;;
44728;SDS011;30457;53.590;9.922;2023-10-08T05:18:30;1.60;;;0.80;;
44728;SDS011;30457;53.590;9.922;2023-10-08T05:23:15;3.17;;;0.73;;
44728;SDS011;30457;53.590;9.922;2023-10-08T05:27:48;1.50;;;0.80;;
44728;SDS011;30457;53.590;9.922;2023-10-08T05:32:16;1.65;;;0.73;;
44728;SDS011;30457;53.590;9.922;2023-10-08T05:37:00;0.50;;;0.50;;
44728;SDS011;30457;53.590;9.922;2023-10-08T05:41:29;0.82;;;0.65;;
44728;SDS011;30457;53.590;9.922;2023-10-08T05:46:04;2.88;;;1.00;;
44728;SDS011;30457;53.590;9.922;2023-10-08T05:50:48;1.70;;;0.85;;
44728;SDS011;30457;53.590;9.922;2023-10-08T05:55:38;2.38;;;0.85;;
44728;SDS011;30457;53.590;9.922;2023-10-08T06:00:12;2.35;;;0.60;;
44728;SDS011;30457;53.590;9.922;2023-10-08T06:04:38;4.32;;;0.70;;
44728;SDS011;30457;53.590;9.922;2023-10-08T06:09:22;3.40;;;2.08;;
44728;SDS011;30457;53.590;9.922;2023-10-08T06:14:00;3.05;;;1.23;;
44728;SDS011;30457;53.590;9.922;2023-10-08T06:18:26;1.83;;;0.70;;
44728;SDS011;30457;53.590;9.922;2023-10-08T06:22:57;4.25;;;0.50;;
44728;SDS011;30457;53.590;9.922;2023-10-08T06:27:28;1.67;;;0.65;;
44728;SDS011;30457;53.590;9.922;2023-10-08T06:31:57;3.00;;;0.68;;
44728;SDS011;30457;53.590;9.922;2023-10-08T06:36:27;1.25;;;0.47;;
44728;SDS011;30457;53.590;9.922;2023-10-08T06:40:54;2.22;;;0.40;;
44728;SDS011;30457;53.590;9.922;2023-10-08T06:45:21;4.82;;;0.70;;
44728;SDS011;30457;53.590;9.922;2023-10-08T06:49:47;1.38;;;0.95;;
44728;SDS011;30457;53.590;9.922;2023-10-08T06:54:12;2.25;;;0.75;;
44728;SDS011;30457;53.590;9.922;2023-10-08T06:58:42;3.85;;;0.70;;
44728;SDS011;30457;53.590;9.922;2023-10-08T07:03:17;2.20;;;0.90;;
44728;SDS011;30457;53.590;9.922;2023-10-08T07:07:43;2.13;;;0.60;;
44728;SDS011;30457;53.590;9.922;2023-10-08T07:12:09;6.32;;;1.65;;
44728;SDS011;30457;53.590;9.922;2023-10-08T07:16:39;1.58;;;0.70;;
44728;SDS011;30457;53.590;9.922;2023-10-08T07:21:07;2.53;;;1.02;;
44728;SDS011;30457;53.590;9.922;2023-10-08T07:25:38;3.15;;;1.05;;
44728;SDS011;30457;53.590;9.922;2023-10-08T07:30:04;2.15;;;0.98;;
44728;SDS011;30457;53.590;9.922;2023-10-08T07:34:38;3.83;;;1.00;;
44728;SDS011;30457;53.590;9.922;2023-10-08T07:39:04;2.67;;;0.68;;
44728;SDS011;30457;53.590;9.922;2023-10-08T07:43:33;2.05;;;0.90;;
44728;SDS011;30457;53.590;9.922;2023-10-08T07:48:00;1.58;;;0.80;;
44728;SDS011;30457;53.590;9.922;2023-10-08T07:52:26;3.33;;;1.65;;
44728;SDS011;30457;53.590;9.922;2023-10-08T07:56:51;5.15;;;1.00;;
44728;SDS011;30457;53.590;9.922;2023-10-08T08:01:22;3.85;;;0.90;;
44728;SDS011;30457;53.590;9.922;2023-10-08T08:05:49;1.58;;;1.02;;
44728;SDS011;30457;53.590;9.922;2023-10-08T08:10:17;4.35;;;0.55;;
44728;SDS011;30457;53.590;9.922;2023-10-08T08:14:44;2.15;;;0.50;;
44728;SDS011;30457;53.590;9.922;2023-10-08T08:19:10;3.10;;;0.55;;
44728;SDS011;30457;53.590;9.922;2023-10-08T08:23:35;2.03;;;0.63;;
44728;SDS011;30457;53.590;9.922;2023-10-08T08:28:01;5.35;;;1.60;;
44728;SDS011;30457;53.590;9.922;2023-10-08T08:32:31;8.35;;;0.70;;
44728;SDS011;30457;53.590;9.922;2023-10-08T08:36:57;4.15;;;1.00;;
44728;SDS011;30457;53.590;9.922;2023-10-08T08:41:22;2.20;;;0.73;;
44728;SDS011;30457;53.590;9.922;2023-10-08T08:45:48;1.95;;;0.77;;
44728;SDS011;30457;53.590;9.922;2023-10-08T08:50:14;3.15;;;0.90;;
44728;SDS011;30457;53.590;9.922;2023-10-08T08:54:42;1.55;;;0.80;;
44728;SDS011;30457;53.590;9.922;2023-10-08T08:59:08;2.97;;;0.70;;
44728;SDS011;30457;53.590;9.922;2023-10-08T09:03:36;3.10;;;1.05;;
44728;SDS011;30457;53.590;9.922;2023-10-08T09:08:03;3.58;;;0.93;;
44728;SDS011;30457;53.590;9.922;2023-10-08T09:12:31;2.65;;;0.80;;
44728;SDS011;30457;53.590;9.922;2023-10-08T09:16:59;2.15;;;0.60;;
44728;SDS011;30457;53.590;9.922;2023-10-08T09:21:25;1.60;;;0.45;;
44728;SDS011;30457;53.590;9.922;2023-10-08T09:25:51;1.25;;;0.75;;
44728;SDS011;30457;53.590;9.922;2023-10-08T09:34:56;2.83;;;0.70;;
44728;SDS011;30457;53.590;9.922;2023-10-08T09:39:23;1.75;;;0.57;;
44728;SDS011;30457;53.590;9.922;2023-10-08T09:43:50;2.47;;;0.60;;
44728;SDS011;30457;53.590;9.922;2023-10-08T09:48:16;1.75;;;0.50;;
44728;SDS011;30457;53.590;9.922;2023-10-08T09:52:49;4.15;;;0.70;;
44728;SDS011;30457;53.590;9.922;2023-10-08T09:57:21;2.25;;;0.60;;
44728;SDS011;30457;53.590;9.922;2023-10-08T10:01:51;1.58;;;0.40;;
44728;SDS011;30457;53.590;9.922;2023-10-08T10:06:18;3.90;;;0.47;;
44728;SDS011;30457;53.590;9.922;2023-10-08T10:10:44;1.50;;;0.40;;
44728;SDS011;30457;53.590;9.922;2023-10-08T10:15:12;0.82;;;0.45;;
44728;SDS011;30457;53.590;9.922;2023-10-08T10:19:38;2.15;;;0.47;;
44728;SDS011;30457;53.590;9.922;2023-10-08T10:24:22;0.47;;;0.47;;
44728;SDS011;30457;53.590;9.922;2023-10-08T10:33:40;1.10;;;0.70;;
44728;SDS011;30457;53.590;9.922;2023-10-08T10:38:05;1.70;;;0.40;;
44728;SDS011;30457;53.590;9.922;2023-10-08T10:42:33;2.50;;;0.70;;
44728;SDS011;30457;53.590;9.922;2023-10-08T10:47:03;3.45;;;0.85;;
44728;SDS011;30457;53.590;9.922;2023-10-08T10:51:40;2.15;;;0.40;;
44728;SDS011;30457;53.590;9.922;2023-10-08T10:56:06;1.55;;;0.45;;
44728;SDS011;30457;53.590;9.922;2023-10-08T11:00:34;2.72;;;0.50;;
44728;SDS011;30457;53.590;9.922;2023-10-08T11:05:00;2.20;;;0.82;;
44728;SDS011;30457;53.590;9.922;2023-10-08T11:09:33;2.97;;;1.00;;
44728;SDS011;30457;53.590;9.922;2023-10-08T11:14:03;2.38;;;0.50;;
44728;SDS011;30457;53.590;9.922;2023-10-08T11:18:29;0.77;;;0.75;;
44728;SDS011;30457;53.590;9.922;2023-10-08T11:22:55;1.13;;;0.70;;
44728;SDS011;30457;53.590;9.922;2023-10-08T11:27:20;2.45;;;0.70;;
44728;SDS011;30457;53.590;9.922;2023-10-08T11:32:00;1.40;;;0.70;;
44728;SDS011;30457;53.590;9.922;2023-10-08T11:36:27;1.20;;;0.60;;
44728;SDS011;30457;53.590;9.922;2023-10-08T11:40:54;1.77;;;0.52;;
44728;SDS011;30457;53.590;9.922;2023-10-08T11:45:22;6.30;;;1.20;;
44728;SDS011;30457;53.590;9.922;2023-10-08T11:49:51;2.90;;;0.70;;
44728;SDS011;30457;53.590;9.922;2023-10-08T11:54:34;2.92;;;0.70;;
44728;SDS011;30457;53.590;9.922;2023-10-08T11:59:01;1.45;;;0.55;;
44728;SDS011;30457;53.590;9.922;2023-10-08T12:03:30;0.82;;;0.50;;
44728;SDS011;30457;53.590;9.922;2023-10-08T12:07:56;3.00;;;0.68;;
44728;SDS011;30457;53.590;9.922;2023-10-08T12:12:23;2.08;;;0.45;;
44728;SDS011;30457;53.590;9.922;2023-10-08T12:16:48;0.88;;;0.60;;
44728;SDS011;30457;53.590;9.922;2023-10-08T12:21:17;0.80;;;0.70;;
44728;SDS011;30457;53.590;9.922;2023-10-08T12:25:42;0.60;;;0.60;;
44728;SDS011;30457;53.590;9.922;2023-10-08T12:30:16;2.15;;;0.75;;
44728;SDS011;30457;53.590;9.922;2023-10-08T12:34:41;1.27;;;0.75;;
44728;SDS011;30457;53.590;9.922;2023-10-08T12:39:07;1.48;;;0.95;;
44728;SDS011;30457;53.590;9.922;2023-10-08T12:43:43;1.42;;;0.60;;
44728;SDS011;30457;53.590;9.922;2023-10-08T12:48:18;1.67;;;0.80;;
44728;SDS011;30457;53.590;9.922;2023-10-08T12:52:47;0.60;;;0.60;;
44728;SDS011;30457;53.590;9.922;2023-10-08T12:57:18;1.20;;;0.50;;
44728;SDS011;30457;53.590;9.922;2023-10-08T13:01:44;1.52;;;0.60;;
44728;SDS011;30457;53.590;9.922;2023-10-08T13:06:09;0.85;;;0.57;;
44728;SDS011;30457;53.590;9.922;2023-10-08T13:10:39;1.35;;;0.60;;
44728;SDS011;30457;53.590;9.922;2023-10-08T13:15:09;1.02;;;0.68;;
44728;SDS011;30457;53.590;9.922;2023-10-08T13:19:34;2.33;;;1.20;;
44728;SDS011;30457;53.590;9.922;2023-10-08T13:24:00;2.92;;;0.80;;
44728;SDS011;30457;53.590;9.922;2023-10-08T13:28:27;0.80;;;0.63;;
44728;SDS011;30457;53.590;9.922;2023-10-08T13:32:53;1.05;;;0.73;;
44728;SDS011;30457;53.590;9.922;2023-10-08T13:37:18;2.28;;;0.60;;
44728;SDS011;30457;53.590;9.922;2023-10-08T13:41:44;3.33;;;0.95;;
44728;SDS011;30457;53.590;9.922;2023-10-08T13:46:14;3.47;;;0.60;;
44728;SDS011;30457;53.590;9.922;2023-10-08T13:50:42;1.55;;;0.60;;
44728;SDS011;30457;53.590;9.922;2023-10-08T13:55:08;1.67;;;0.70;;
44728;SDS011;30457;53.590;9.922;2023-10-08T13:59:38;1.92;;;0.70;;
44728;SDS011;30457;53.590;9.922;2023-10-08T14:04:04;1.15;;;0.55;;
44728;SDS011;30457;53.590;9.922;2023-10-08T14:08:30;2.05;;;0.60;;
44728;SDS011;30457;53.590;9.922;2023-10-08T14:12:56;4.00;;;1.52;;
44728;SDS011;30457;53.590;9.922;2023-10-08T14:17:26;2.90;;;0.90;;
44728;SDS011;30457;53.590;9.922;2023-10-08T14:22:18;2.38;;;0.75;;
44728;SDS011;30457;53.590;9.922;2023-10-08T14:26:47;1.42;;;0.70;;
44728;SDS011;30457;53.590;9.922;2023-10-08T14:31:21;1.10;;;0.57;;
44728;SDS011;30457;53.590;9.922;2023-10-08T14:35:47;2.33;;;0.60;;
44728;SDS011;30457;53.590;9.922;2023-10-08T14:40:31;0.68;;;0.50;;
44728;SDS011;30457;53.590;9.922;2023-10-08T14:45:16;0.85;;;0.50;;
44728;SDS011;30457;53.590;9.922;2023-10-08T14:49:44;1.35;;;0.70;;
44728;SDS011;30457;53.590;9.922;2023-10-08T14:54:10;1.05;;;0.52;;
44728;SDS011;30457;53.590;9.922;2023-10-08T14:58:36;5.28;;;0.80;;
44728;SDS011;30457;53.590;9.922;2023-10-08T15:03:02;1.90;;;0.50;;
44728;SDS011;30457;53.590;9.922;2023-10-08T15:07:28;0.77;;;0.60;;
44728;SDS011;30457;53.590;9.922;2023-10-08T15:11:53;5.43;;;0.77;;
44728;SDS011;30457;53.590;9.922;2023-10-08T15:16:19;1.52;;;0.73;;
44728;SDS011;30457;53.590;9.922;2023-10-08T15:20:48;4.05;;;0.93;;
44728;SDS011;30457;53.590;9.922;2023-10-08T15:25:16;1.40;;;0.55;;
44728;SDS011;30457;53.590;9.922;2023-10-08T15:29:42;2.40;;;0.90;;
44728;SDS011;30457;53.590;9.922;2023-10-08T15:34:08;2.08;;;1.13;;
44728;SDS011;30457;53.590;9.922;2023-10-08T15:38:37;2.08;;;0.95;;
44728;SDS011;30457;53.590;9.922;2023-10-08T15:43:03;2.38;;;1.00;;
44728;SDS011;30457;53.590;9.922;2023-10-08T15:47:29;3.15;;;0.82;;
44728;SDS011;30457;53.590;9.922;2023-10-08T15:51:56;1.35;;;0.85;;
44728;SDS011;30457;53.590;9.922;2023-10-08T15:56:22;1.98;;;0.90;;
44728;SDS011;30457;53.590;9.922;2023-10-08T16:00:47;3.75;;;0.90;;
44728;SDS011;30457;53.590;9.922;2023-10-08T16:05:13;1.00;;;0.70;;
44728;SDS011;30457;53.590;9.922;2023-10-08T16:09:40;2.20;;;0.77;;
44728;SDS011;30457;53.590;9.922;2023-10-08T16:14:09;2.45;;;0.90;;
44728;SDS011;30457;53.590;9.922;2023-10-08T16:18:34;1.88;;;0.70;;
44728;SDS011;30457;53.590;9.922;2023-10-08T16:23:01;3.00;;;1.40;;
44728;SDS011;30457;53.590;9.922;2023-10-08T16:27:26;1.25;;;0.93;;
44728;SDS011;30457;53.590;9.922;2023-10-08T16:31:52;2.17;;;1.17;;
44728;SDS011;30457;53.590;9.922;2023-10-08T16:36:18;2.33;;;1.02;;
44728;SDS011;30457;53.590;9.922;2023-10-08T16:40:44;5.93;;;1.45;;
44728;SDS011;30457;53.590;9.922;2023-10-08T16:45:10;5.35;;;1.88;;
44728;SDS011;30457;53.590;9.922;2023-10-08T16:49:35;2.90;;;1.27;;
44728;SDS011;30457;53.590;9.922;2023-10-08T16:54:06;2.15;;;1.27;;
44728;SDS011;30457;53.590;9.922;2023-10-08T16:58:39;1.70;;;1.00;;
44728;SDS011;30457;53.590;9.922;2023-10-08T17:03:05;3.55;;;1.27;;
44728;SDS011;30457;53.590;9.922;2023-10-08T17:07:30;3.10;;;1.38;;
44728;SDS011;30457;53.590;9.922;2023-10-08T17:11:56;3.45;;;1.42;;
44728;SDS011;30457;53.590;9.922;2023-10-08T17:16:22;4.47;;;2.05;;
44728;SDS011;30457;53.590;9.922;2023-10-08T17:20:47;3.28;;;1.92;;
44728;SDS011;30457;53.590;9.922;2023-10-08T17:25:13;3.20;;;1.85;;
44728;SDS011;30457;53.590;9.922;2023-10-08T17:29:39;2.58;;;1.70;;
44728;SDS011;30457;53.590;9.922;2023-10-08T17:34:05;3.15;;;1.67;;
44728;SDS011;30457;53.590;9.922;2023-10-08T17:38:31;3.20;;;2.10;;
44728;SDS011;30457;53.590;9.922;2023-10-08T17:42:56;2.83;;;1.70;;
44728;SDS011;30457;53.590;9.922;2023-10-08T17:47:22;3.92;;;1.75;;
44728;SDS011;30457;53.590;9.922;2023-10-08T17:51:48;2.78;;;2.03;;
44728;SDS011;30457;53.590;9.922;2023-10-08T17:56:14;4.63;;;2.05;;
44728;SDS011;30457;53.590;9.922;2023-10-08T18:00:40;5.90;;;2.15;;
44728;SDS011;30457;53.590;9.922;2023-10-08T18:05:08;5.00;;;2.20;;
44728;SDS011;30457;53.590;9.922;2023-10-08T18:09:41;3.38;;;2.10;;
44728;SDS011;30457;53.590;9.922;2023-10-08T18:14:09;12.98;;;2.10;;
44728;SDS011;30457;53.590;9.922;2023-10-08T18:18:39;2.95;;;1.75;;
44728;SDS011;30457;53.590;9.922;2023-10-08T18:23:04;7.65;;;2.25;;
44728;SDS011;30457;53.590;9.922;2023-10-08T18:27:30;3.28;;;2.05;;
44728;SDS011;30457;53.590;9.922;2023-10-08T18:31:55;5.40;;;2.67;;
44728;SDS011;30457;53.590;9.922;2023-10-08T18:36:23;6.93;;;3.17;;
44728;SDS011;30457;53.590;9.922;2023-10-08T18:40:49;8.00;;;3.95;;
44728;SDS011;30457;53.590;9.922;2023-10-08T18:45:16;6.78;;;3.00;;
44728;SDS011;30457;53.590;9.922;2023-10-08T18:49:43;5.05;;;2.60;;
44728;SDS011;30457;53.590;9.922;2023-10-08T18:54:09;2.95;;;2.00;;
44728;SDS011;30457;53.590;9.922;2023-10-08T18:58:37;3.47;;;2.55;;
44728;SDS011;30457;53.590;9.922;2023-10-08T19:03:04;4.72;;;2.35;;
44728;SDS011;30457;53.590;9.922;2023-10-08T19:07:32;3.78;;;2.33;;
44728;SDS011;30457;53.590;9.922;2023-10-08T19:11:58;5.60;;;2.92;;
44728;SDS011;30457;53.590;9.922;2023-10-08T19:16:31;3.38;;;2.30;;
44728;SDS011;30457;53.590;9.922;2023-10-08T19:20:56;5.30;;;2.05;;
44728;SDS011;30457;53.590;9.922;2023-10-08T19:25:22;4.38;;;2.20;;
44728;SDS011;30457;53.590;9.922;2023-10-08T19:29:49;3.50;;;2.03;;
44728;SDS011;30457;53.590;9.922;2023-10-08T19:34:15;2.78;;;2.17;;
44728;SDS011;30457;53.590;9.922;2023-10-08T19:38:40;4.30;;;2.53;;
44728;SDS011;30457;53.590;9.922;2023-10-08T19:43:06;6.20;;;2.33;;
44728;SDS011;30457;53.590;9.922;2023-10-08T19:47:34;4.95;;;2.40;;
44728;SDS011;30457;53.590;9.922;2023-10-08T19:51:59;5.43;;;2.72;;
44728;SDS011;30457;53.590;9.922;2023-10-08T19:56:26;5.47;;;2.40;;
44728;SDS011;30457;53.590;9.922;2023-10-08T20:00:52;5.03;;;2.72;;
44728;SDS011;30457;53.590;9.922;2023-10-08T20:05:18;5.78;;;2.80;;
44728;SDS011;30457;53.590;9.922;2023-10-08T20:09:46;4.30;;;2.70;;
44728;SDS011;30457;53.590;9.922;2023-10-08T20:14:13;5.90;;;3.17;;
44728;SDS011;30457;53.590;9.922;2023-10-08T20:18:38;7.57;;;3.42;;
44728;SDS011;30457;53.590;9.922;2023-10-08T20:23:04;6.97;;;2.83;;
44728;SDS011;30457;53.590;9.922;2023-10-08T20:27:30;5.40;;;2.70;;
44728;SDS011;30457;53.590;9.922;2023-10-08T20:31:56;5.35;;;2.50;;
44728;SDS011;30457;53.590;9.922;2023-10-08T20:36:25;3.88;;;2.00;;
44728;SDS011;30457;53.590;9.922;2023-10-08T20:40:50;5.53;;;2.33;;
44728;SDS011;30457;53.590;9.922;2023-10-08T20:45:16;5.38;;;2.25;;
44728;SDS011;30457;53.590;9.922;2023-10-08T20:49:42;6.95;;;2.70;;
44728;SDS011;30457;53.590;9.922;2023-10-08T20:54:08;4.28;;;2.17;;
44728;SDS011;30457;53.590;9.922;2023-10-08T20:58:33;2.92;;;2.08;;
44728;SDS011;30457;53.590;9.922;2023-10-08T21:02:59;5.90;;;2.05;;
44728;SDS011;30457;53.590;9.922;2023-10-08T21:07:29;6.30;;;1.95;;
44728;SDS011;30457;53.590;9.922;2023-10-08T21:11:55;2.85;;;2.20;;
44728;SDS011;30457;53.590;9.922;2023-10-08T21:16:21;3.92;;;1.80;;
44728;SDS011;30457;53.590;9.922;2023-10-08T21:20:49;7.22;;;2.58;;
44728;SDS011;30457;53.590;9.922;2023-10-08T21:25:16;3.25;;;2.00;;
44728;SDS011;30457;53.590;9.922;2023-10-08T21:29:42;2.38;;;1.73;;
44728;SDS011;30457;53.590;9.922;2023-10-08T21:34:08;3.00;;;1.90;;
44728;SDS011;30457;53.590;9.922;2023-10-08T21:38:34;4.93;;;1.75;;
44728;SDS011;30457;53.590;9.922;2023-10-08T21:42:59;6.35;;;2.08;;
44728;SDS011;30457;53.590;9.922;2023-10-08T21:47:25;4.20;;;2.10;;
44728;SDS011;30457;53.590;9.922;2023-10-08T21:51:52;6.70;;;2.28;;
44728;SDS011;30457;53.590;9.922;2023-10-08T21:56:18;3.28;;;1.83;;
44728;SDS011;30457;53.590;9.922;2023-10-08T22:00:43;5.13;;;1.70;;
44728;SDS011;30457;53.590;9.922;2023-10-08T22:05:14;4.10;;;1.83;;
44728;SDS011;30457;53.590;9.922;2023-10-08T22:09:40;5.85;;;1.60;;
44728;SDS011;30457;53.590;9.922;2023-10-08T22:14:06;2.42;;;2.00;;
44728;SDS011;30457;53.590;9.922;2023-10-08T22:18:36;3.45;;;1.52;;
44728;SDS011;30457;53.590;9.922;2023-10-08T22:23:07;6.55;;;1.52;;
44728;SDS011;30457;53.590;9.922;2023-10-08T22:27:39;4.90;;;1.70;;
44728;SDS011;30457;53.590;9.922;2023-10-08T22:32:05;3.35;;;1.80;;
44728;SDS011;30457;53.590;9.922;2023-10-08T22:36:33;2.10;;;1.42;;
44728;SDS011;30457;53.590;9.922;2023-10-08T22:41:12;3.78;;;2.05;;
44728;SDS011;30457;53.590;9.922;2023-10-08T22:45:37;1.75;;;1.30;;
44728;SDS011;30457;53.590;9.922;2023-10-08T22:50:03;1.88;;;1.70;;
44728;SDS011;30457;53.590;9.922;2023-10-08T22:54:42;3.50;;;1.70;;
44728;SDS011;30457;53.590;9.922;2023-10-08T22:59:09;2.42;;;1.52;;
44728;SDS011;30457;53.590;9.922;2023-10-08T23:03:36;4.80;;;2.13;;
44728;SDS011;30457;53.590;9.922;2023-10-08T23:08:02;2.75;;;1.80;;
44728;SDS011;30457;53.590;9.922;2023-10-08T23:12:28;4.60;;;2.00;;
44728;SDS011;30457;53.590;9.922;2023-10-08T23:16:54;3.65;;;2.13;;
44728;SDS011;30457;53.590;9.922;2023-10-08T23:21:22;4.30;;;2.05;;
44728;SDS011;30457;53.590;9.922;2023-10-08T23:25:50;6.10;;;2.08;;
44728;SDS011;30457;53.590;9.922;2023-10-08T23:30:16;3.97;;;2.17;;
44728;SDS011;30457;53.590;9.922;2023-10-08T23:34:42;1.98;;;1.55;;
44728;SDS011;30457;53.590;9.922;2023-10-08T23:39:09;2.40;;;2.00;;
44728;SDS011;30457;53.590;9.922;2023-10-08T23:43:50;1.65;;;1.38;;
44728;SDS011;30457;53.590;9.922;2023-10-08T23:48:21;3.63;;;1.60;;
44728;SDS011;30457;53.590;9.922;2023-10-08T23:52:47;2.97;;;1.75;;
44728;SDS011;30457;53.590;9.922;2023-10-08T23:57:13;3.35;;;1.75;;
